createdAt,value
2022-08-18T00:20:56.119Z,9.87
2022-08-18T00:22:57.773Z,9.80
2022-08-18T00:24:59.389Z,9.07
2022-08-18T00:27:00.988Z,9.53
2022-08-18T00:29:03.910Z,8.00
2022-08-18T00:31:06.313Z,10.53
2022-08-18T00:33:07.900Z,8.50
2022-08-18T00:35:12.605Z,7.67
2022-08-18T00:37:15.632Z,9.40
2022-08-18T00:39:17.315Z,8.20
2022-08-18T00:41:19.665Z,9.80
2022-08-18T00:43:26.077Z,8.13
2022-08-18T00:45:31.852Z,7.50
2022-08-18T00:47:42.856Z,9.10
2022-08-18T00:49:46.342Z,7.60
2022-08-18T00:51:51.644Z,7.67
2022-08-18T00:54:00.554Z,7.10
2022-08-18T00:56:07.818Z,9.83
2022-08-18T00:58:15.401Z,7.70
2022-08-18T01:00:17.336Z,7.67
2022-08-18T01:02:22.843Z,7.53
2022-08-18T01:04:28.005Z,7.77
2022-08-18T01:06:37.222Z,7.33
2022-08-18T01:08:38.776Z,8.03
2022-08-18T01:10:45.255Z,6.50
2022-08-18T01:12:49.332Z,6.13
2022-08-18T01:14:50.987Z,6.80
2022-08-18T01:16:57.054Z,6.90
2022-08-18T01:18:59.343Z,7.90
2022-08-18T01:21:09.010Z,8.77
2022-08-18T01:23:15.484Z,8.27
2022-08-18T01:25:21.379Z,7.87
2022-08-18T01:27:28.559Z,7.83
2022-08-18T01:29:30.157Z,7.17
2022-08-18T01:31:35.063Z,9.93
2022-08-18T01:33:40.423Z,6.87
2022-08-18T01:35:46.983Z,7.00
2022-08-18T01:37:49.068Z,8.03
2022-08-18T01:41:22.595Z,6.53
2022-08-18T01:42:15.921Z,7.10
2022-08-18T01:44:18.167Z,7.70
2022-08-18T01:46:20.692Z,6.40
2022-08-18T01:48:22.289Z,6.60
2022-08-18T01:50:23.860Z,6.77
2022-08-18T01:52:25.412Z,6.90
2022-08-18T01:54:29.065Z,6.80
2022-08-18T01:56:32.065Z,8.10
2022-08-18T01:58:35.414Z,7.20
2022-08-18T02:00:37.039Z,7.53
2022-08-18T02:02:39.504Z,7.00
2022-08-18T02:04:42.652Z,7.20
2022-08-18T02:06:46.464Z,7.50
2022-08-18T02:08:49.835Z,8.70
2022-08-18T02:10:55.948Z,9.00
2022-08-18T02:12:59.083Z,8.00
2022-08-18T02:15:00.645Z,7.63
2022-08-18T02:17:04.117Z,7.17
2022-08-18T02:19:05.707Z,8.33
2022-08-18T02:21:11.220Z,7.33
2022-08-18T02:23:12.766Z,6.20
2022-08-18T02:25:14.926Z,7.87
2022-08-18T02:27:17.061Z,7.77
2022-08-18T02:29:19.944Z,7.20
2022-08-18T02:31:24.098Z,8.47
2022-08-18T02:33:25.688Z,8.07
2022-08-18T02:35:27.666Z,7.90
2022-08-18T02:37:29.232Z,8.10
2022-08-18T02:39:33.705Z,8.33
2022-08-18T02:41:35.338Z,7.90
2022-08-18T02:43:37.894Z,8.00
2022-08-18T02:45:40.887Z,7.83
2022-08-18T02:47:44.198Z,7.47
2022-08-18T02:49:46.039Z,6.77
2022-08-18T02:51:47.653Z,7.10
2022-08-18T02:53:49.244Z,8.10
2022-08-18T02:55:51.017Z,7.70
2022-08-18T02:57:53.047Z,8.33
2022-08-18T02:59:55.193Z,7.57
2022-08-18T03:01:58.431Z,7.40
2022-08-18T03:04:00.815Z,7.27
2022-08-18T03:06:02.365Z,7.10
2022-08-18T03:08:04.322Z,6.43
2022-08-18T03:10:33.389Z,7.87
2022-08-18T03:12:29.644Z,7.20
2022-08-18T03:14:31.214Z,6.73
2022-08-18T03:16:33.861Z,7.40
2022-08-18T03:18:36.939Z,6.60
2022-08-18T03:20:38.566Z,6.90
2022-08-18T03:22:40.108Z,6.00
2022-08-18T03:24:41.769Z,7.00
2022-08-18T03:26:45.090Z,6.70
2022-08-18T03:28:48.393Z,7.23
2022-08-18T03:30:49.969Z,6.43
2022-08-18T03:32:51.528Z,6.60
2022-08-18T03:34:56.435Z,7.30
2022-08-18T03:36:58.535Z,7.20
2022-08-18T03:39:06.056Z,6.43
2022-08-18T03:41:08.256Z,7.23
2022-08-18T03:43:50.254Z,6.63
2022-08-18T03:45:31.360Z,6.53
2022-08-18T03:47:32.986Z,6.77
2022-08-18T03:49:35.018Z,7.17
2022-08-18T03:51:41.860Z,6.40
2022-08-18T03:53:44.334Z,6.93
2022-08-18T03:55:46.014Z,7.27
2022-08-18T03:57:47.705Z,7.33
2022-08-18T03:59:49.244Z,7.70
2022-08-18T04:01:52.041Z,7.90
2022-08-18T04:03:56.417Z,7.07
2022-08-18T04:05:57.953Z,7.73
2022-08-18T04:08:01.147Z,7.73
2022-08-18T04:10:03.386Z,7.63
2022-08-18T04:12:07.311Z,9.10
2022-08-18T04:14:09.025Z,7.10
2022-08-18T04:16:11.806Z,7.67
2022-08-18T04:18:13.355Z,7.57
2022-08-18T04:20:14.922Z,6.97
2022-08-18T04:22:17.463Z,7.70
2022-08-18T04:24:21.399Z,8.10
2022-08-18T04:26:22.983Z,7.20
2022-08-18T04:28:24.805Z,8.60
2022-08-18T04:30:26.808Z,7.73
2022-08-18T04:32:30.890Z,8.27
2022-08-18T04:34:33.326Z,7.90
2022-08-18T04:36:36.408Z,7.07
2022-08-18T04:38:38.727Z,7.53
2022-08-18T04:40:42.461Z,7.87
2022-08-18T04:42:45.133Z,8.60
2022-08-18T04:44:46.700Z,8.73
2022-08-18T04:46:50.312Z,7.77
2022-08-18T04:48:52.400Z,8.30
2022-08-18T04:50:53.964Z,8.10
2022-08-18T04:52:55.560Z,7.70
2022-08-18T04:54:57.107Z,7.03
2022-08-18T04:57:00.068Z,7.60
2022-08-18T04:59:05.090Z,7.60
2022-08-18T05:01:06.704Z,7.63
2022-08-18T05:03:08.365Z,9.43
2022-08-18T05:05:10.503Z,8.07
2022-08-18T05:07:14.150Z,8.47
2022-08-18T05:09:16.867Z,8.83
2022-08-18T05:11:26.825Z,8.03
2022-08-18T05:13:29.786Z,8.60
2022-08-18T05:15:46.835Z,8.80
2022-08-18T05:17:53.277Z,8.43
2022-08-18T05:19:55.587Z,8.93
2022-08-18T05:21:59.795Z,9.13
2022-08-18T05:24:03.248Z,9.20
2022-08-18T05:26:04.885Z,8.00
2022-08-18T05:28:06.445Z,8.60
2022-08-18T05:30:11.199Z,8.03
2022-08-18T05:32:40.995Z,8.60
2022-08-18T05:34:35.460Z,8.40
2022-08-18T05:37:09.487Z,9.20
2022-08-18T05:39:18.348Z,8.30
2022-08-18T05:41:25.505Z,9.17
2022-08-18T05:43:27.131Z,9.27
2022-08-18T05:45:30.190Z,8.97
2022-08-18T05:47:32.965Z,8.30
2022-08-18T05:49:35.915Z,8.60
2022-08-18T05:51:42.307Z,8.33
2022-08-18T05:53:45.557Z,9.23
2022-08-18T05:55:56.157Z,10.10
2022-08-18T05:58:03.209Z,8.67
2022-08-18T06:00:07.383Z,8.60
2022-08-18T06:02:16.788Z,9.17
2022-08-18T06:04:29.329Z,8.70
2022-08-18T06:06:33.135Z,9.23
2022-08-18T06:08:40.489Z,9.37
2022-08-18T06:10:47.321Z,9.90
2022-08-18T06:12:51.795Z,10.13
2022-08-18T06:15:05.656Z,9.27
2022-08-18T06:17:23.515Z,9.30
2022-08-18T06:19:40.605Z,9.33
2022-08-18T06:21:52.513Z,9.90
2022-08-18T06:24:06.622Z,9.07
2022-08-18T06:26:17.665Z,10.73
2022-08-18T06:28:19.344Z,9.63
2022-08-18T06:30:24.682Z,10.30
2022-08-18T06:32:46.477Z,9.43
2022-08-18T06:35:03.482Z,10.60
2022-08-18T06:37:11.931Z,10.77
2022-08-18T06:39:22.104Z,12.70
2022-08-18T06:41:42.578Z,13.13
2022-08-18T06:43:56.443Z,10.97
2022-08-18T06:46:00.475Z,12.70
2022-08-18T06:48:15.176Z,12.13
2022-08-18T06:50:22.597Z,15.10
2022-08-18T06:52:27.503Z,13.97
2022-08-18T06:54:30.480Z,15.03
2022-08-18T06:56:59.902Z,11.60
2022-08-18T06:59:17.436Z,14.07
2022-08-18T07:01:19.437Z,14.73
2022-08-18T07:03:24.065Z,16.93
2022-08-18T07:05:27.148Z,17.93
2022-08-18T07:07:39.517Z,12.10
2022-08-18T07:09:42.161Z,11.57
2022-08-18T07:11:58.683Z,14.90
2022-08-18T07:14:20.148Z,11.03
2022-08-18T07:16:47.075Z,17.20
2022-08-18T07:18:47.268Z,12.33
2022-08-18T07:20:52.075Z,12.53
2022-08-18T07:22:57.217Z,12.40
2022-08-18T07:25:05.504Z,11.73
2022-08-18T07:27:10.331Z,11.80
2022-08-18T07:29:15.476Z,12.07
2022-08-18T07:31:41.139Z,11.47
2022-08-18T07:33:51.268Z,10.80
2022-08-18T07:35:57.280Z,12.07
2022-08-18T07:38:18.662Z,11.13
2022-08-18T07:40:32.444Z,11.70
2022-08-18T07:42:53.956Z,11.67
2022-08-18T07:45:03.057Z,12.27
2022-08-18T07:47:12.361Z,15.97
2022-08-18T07:49:22.491Z,11.63
2022-08-18T07:51:36.029Z,12.93
2022-08-18T07:53:56.409Z,12.37
2022-08-18T07:56:04.981Z,12.10
2022-08-18T07:58:20.085Z,12.73
2022-08-18T08:00:54.811Z,11.37
2022-08-18T08:03:00.468Z,11.13
2022-08-18T08:17:25.567Z,10.80
2022-08-18T08:20:01.823Z,11.50
2022-08-18T08:25:42.713Z,11.40
2022-08-18T08:27:56.371Z,12.07
2022-08-18T08:30:04.397Z,12.07
2022-08-18T08:32:10.974Z,15.70
2022-08-18T08:34:16.749Z,12.70
2022-08-18T08:36:23.540Z,11.87
2022-08-18T08:38:42.123Z,13.10
2022-08-18T08:40:50.983Z,12.87
2022-08-18T08:42:58.735Z,12.40
2022-08-18T08:45:05.466Z,13.90
2022-08-18T08:47:15.068Z,12.20
2022-08-18T08:49:35.712Z,15.33
2022-08-18T08:51:41.821Z,11.47
2022-08-18T08:53:47.661Z,12.77
2022-08-18T08:55:53.305Z,12.83
2022-08-18T08:58:02.244Z,12.30
2022-08-18T09:00:08.314Z,12.50
2022-08-18T09:05:08.311Z,12.97
2022-08-18T09:07:29.534Z,12.00
2022-08-18T09:09:57.806Z,13.20
2022-08-18T09:12:32.076Z,12.43
2022-08-18T09:14:52.678Z,13.13
2022-08-18T09:17:16.114Z,15.17
2022-08-18T09:19:34.148Z,13.97
2022-08-18T09:21:44.160Z,15.43
2022-08-18T09:23:48.244Z,16.33
2022-08-18T09:25:52.159Z,19.77
2022-08-18T09:28:10.964Z,15.60
2022-08-18T09:30:40.005Z,15.77
2022-08-18T09:32:56.811Z,15.70
2022-08-18T09:35:09.016Z,17.33
2022-08-18T09:37:21.446Z,16.90
2022-08-18T09:39:31.969Z,21.47
2022-08-18T09:41:39.576Z,20.37
2022-08-18T09:43:56.492Z,20.67
2022-08-18T09:45:59.232Z,16.00
2022-08-18T09:51:23.342Z,16.00
2022-08-18T09:53:54.143Z,15.17
2022-08-18T09:56:01.342Z,10.50
2022-08-18T09:58:20.033Z,15.40
2022-08-18T10:00:30.473Z,15.73
2022-08-18T10:03:04.626Z,15.37
2022-08-18T10:05:27.005Z,11.90
2022-08-18T10:07:38.937Z,12.70
2022-08-18T10:09:58.618Z,12.53
2022-08-18T10:12:31.852Z,13.13
2022-08-18T10:14:52.605Z,13.53
2022-08-18T10:17:23.783Z,12.70
2022-08-18T10:19:39.902Z,12.50
2022-08-18T10:22:06.981Z,13.37
2022-08-18T10:24:36.446Z,11.30
2022-08-18T10:27:25.862Z,12.80
2022-08-18T10:29:54.548Z,11.40
2022-08-18T10:32:21.825Z,13.03
2022-08-18T10:34:38.423Z,14.23
2022-08-18T10:36:52.370Z,11.63
2022-08-18T10:38:54.193Z,10.97
2022-08-18T10:41:09.439Z,11.50
2022-08-18T10:45:59.381Z,12.57
2022-08-18T10:48:17.944Z,13.37
2022-08-18T10:50:23.048Z,11.53
2022-08-18T10:55:20.174Z,13.37
2022-08-18T10:57:31.220Z,13.70
2022-08-18T10:59:41.695Z,13.00
2022-08-18T11:02:06.089Z,12.70
2022-08-18T11:06:40.753Z,12.50
2022-08-18T11:08:45.109Z,12.10
2022-08-18T11:11:27.412Z,13.13
2022-08-18T11:13:21.518Z,13.17
2022-08-18T11:15:36.205Z,12.03
2022-08-18T11:17:55.024Z,13.90
2022-08-18T11:19:58.614Z,15.23
2022-08-18T11:22:00.336Z,13.30
2022-08-18T11:24:04.857Z,13.33
2022-08-18T11:26:14.322Z,14.47
2022-08-18T11:28:21.788Z,12.80
2022-08-18T11:30:35.337Z,14.80
2022-08-18T11:32:46.563Z,14.60
2022-08-18T11:35:02.985Z,13.40
2022-08-18T11:37:09.108Z,12.80
2022-08-18T11:39:12.576Z,13.17
2022-08-18T11:41:18.972Z,14.10
2022-08-18T11:43:29.730Z,12.67
2022-08-18T11:45:55.398Z,13.33
2022-08-18T11:48:11.099Z,15.50
2022-08-18T11:50:14.142Z,12.57
2022-08-18T11:52:26.237Z,13.37
2022-08-18T11:54:50.849Z,13.03
2022-08-18T11:57:37.732Z,13.83
2022-08-18T11:59:52.406Z,12.17
2022-08-18T12:01:57.169Z,13.50
2022-08-18T12:04:09.523Z,15.70
2022-08-18T12:06:21.916Z,13.07
2022-08-18T12:08:56.697Z,14.50
2022-08-18T12:13:26.630Z,18.23
2022-08-18T12:15:44.300Z,14.07
2022-08-18T12:17:52.137Z,15.17
2022-08-18T12:19:54.819Z,12.30
2022-08-18T12:22:01.540Z,16.20
2022-08-18T12:24:05.093Z,14.07
2022-08-18T12:26:06.828Z,15.80
2022-08-18T12:28:28.577Z,14.87
2022-08-18T12:30:30.183Z,14.63
2022-08-18T12:32:48.810Z,13.40
2022-08-18T12:34:52.725Z,14.73
2022-08-18T12:36:55.880Z,13.50
2022-08-18T12:38:58.843Z,12.03
2022-08-18T12:41:00.842Z,12.77
2022-08-18T12:43:05.906Z,14.27
2022-08-18T12:45:09.051Z,12.27
2022-08-18T12:47:13.506Z,18.10
2022-08-18T12:49:18.508Z,14.27
2022-08-18T12:51:20.095Z,13.63
2022-08-18T12:55:49.992Z,12.33
2022-08-18T13:00:18.674Z,14.53
2022-08-18T13:02:20.569Z,14.13
2022-08-18T13:04:22.499Z,14.20
2022-08-18T13:06:37.764Z,15.07
2022-08-18T13:08:50.244Z,15.30
2022-08-18T13:10:56.306Z,17.57
2022-08-18T13:12:59.838Z,14.70
2022-08-18T13:15:01.446Z,16.77
2022-08-18T13:17:03.133Z,14.67
2022-08-18T13:19:06.041Z,16.77
2022-08-18T13:21:08.748Z,17.43
2022-08-18T13:23:11.558Z,13.97
2022-08-18T13:25:28.692Z,16.47
2022-08-18T13:27:37.406Z,22.10
2022-08-18T13:29:39.272Z,16.87
2022-08-18T13:31:49.305Z,15.20
2022-08-18T13:34:00.670Z,16.97
2022-08-18T13:36:06.400Z,16.00
2022-08-18T13:38:14.132Z,17.33
2022-08-18T13:40:19.343Z,16.73
2022-08-18T13:42:26.675Z,17.17
2022-08-18T13:44:33.293Z,17.33
2022-08-18T13:46:34.958Z,17.97
2022-08-18T13:48:37.253Z,18.80
2022-08-18T13:50:39.887Z,21.90
2022-08-18T13:52:44.704Z,20.70
2022-08-18T13:54:46.537Z,19.40
2022-08-18T13:56:55.528Z,18.27
2022-08-18T13:58:59.928Z,20.50
2022-08-18T14:01:39.458Z,20.03
2022-08-18T14:03:47.046Z,22.60
2022-08-18T14:05:51.495Z,23.20
2022-08-18T14:07:54.646Z,20.63
2022-08-18T14:09:58.964Z,21.40
2022-08-18T14:12:15.492Z,21.00
2022-08-18T14:14:23.397Z,21.27
2022-08-18T14:16:28.984Z,21.70
2022-08-18T14:18:30.986Z,21.37
2022-08-18T14:20:35.769Z,20.77
2022-08-18T14:22:38.916Z,22.30
2022-08-18T14:24:42.435Z,22.57
2022-08-18T14:26:50.767Z,23.03
2022-08-18T14:28:52.841Z,22.33
2022-08-18T14:30:55.269Z,21.70
2022-08-18T14:32:59.301Z,22.97
2022-08-18T14:35:32.119Z,22.77
2022-08-18T14:37:25.284Z,22.90
2022-08-18T14:39:27.187Z,25.10
2022-08-18T14:41:31.299Z,23.53
2022-08-18T14:44:00.421Z,22.97
2022-08-18T14:45:58.033Z,23.20
2022-08-18T14:48:02.399Z,20.43
2022-08-18T14:50:10.091Z,22.67
2022-08-18T14:52:14.055Z,21.37
2022-08-18T14:54:19.439Z,21.57
2022-08-18T14:56:20.975Z,21.10
2022-08-18T14:58:26.931Z,21.93
2022-08-18T15:00:29.070Z,22.60
2022-08-18T15:02:30.663Z,22.87
2022-08-18T15:04:33.765Z,23.17
2022-08-18T15:06:40.125Z,20.87
2022-08-18T15:08:43.817Z,20.30
2022-08-18T15:10:49.196Z,20.60
2022-08-18T15:12:54.449Z,20.27
2022-08-18T15:14:56.292Z,20.63
2022-08-18T15:16:58.866Z,20.80
2022-08-18T15:19:01.904Z,18.07
2022-08-18T15:21:05.113Z,18.50
2022-08-18T15:23:24.890Z,19.30
2022-08-18T15:25:30.677Z,19.10
2022-08-18T15:27:42.400Z,17.50
2022-08-18T15:29:44.973Z,16.13
2022-08-18T15:31:50.228Z,16.90
2022-08-18T15:33:52.119Z,18.23
2022-08-18T15:35:54.123Z,19.57
2022-08-18T15:37:57.363Z,18.90
2022-08-18T15:40:01.374Z,17.80
2022-08-18T15:42:10.304Z,17.17
2022-08-18T15:44:13.023Z,17.07
2022-08-18T15:46:16.611Z,18.50
2022-08-18T15:48:22.906Z,17.17
2022-08-18T15:50:25.792Z,17.23
2022-08-18T15:52:27.781Z,17.20
2022-08-18T15:54:31.098Z,15.63
2022-08-18T15:56:33.390Z,16.23
2022-08-18T15:58:34.944Z,16.50
2022-08-18T16:00:38.246Z,15.40
2022-08-18T16:02:40.915Z,15.93
2022-08-18T16:04:47.003Z,15.87
2022-08-18T16:06:53.705Z,16.00
2022-08-18T16:08:57.252Z,16.97
2022-08-18T16:11:07.329Z,15.70
2022-08-18T16:13:09.506Z,14.63
2022-08-18T16:17:23.755Z,15.77
2022-08-18T16:19:31.899Z,14.83
2022-08-18T16:21:34.406Z,14.10
2022-08-18T16:23:37.142Z,14.50
2022-08-18T16:25:42.450Z,14.27
2022-08-18T16:27:46.099Z,14.07
2022-08-18T16:29:47.667Z,14.60
2022-08-18T16:31:49.220Z,14.30
2022-08-18T16:33:52.046Z,14.37
2022-08-18T16:35:53.796Z,14.50
2022-08-18T16:37:55.390Z,14.53
2022-08-18T16:39:57.909Z,13.03
2022-08-18T16:41:59.663Z,14.37
2022-08-18T16:44:02.821Z,14.13
2022-08-18T16:46:09.171Z,13.40
2022-08-18T16:48:12.573Z,13.73
2022-08-18T16:50:17.354Z,12.43
2022-08-18T16:52:19.849Z,13.07
2022-08-18T16:54:21.456Z,13.67
2022-08-18T16:56:26.304Z,12.90
2022-08-18T16:58:27.886Z,13.27
2022-08-18T17:00:33.768Z,14.17
2022-08-18T17:02:35.352Z,13.63
2022-08-18T17:04:37.183Z,13.03
2022-08-18T17:06:47.861Z,13.20
2022-08-18T17:08:49.683Z,13.67
2022-08-18T17:10:51.229Z,13.20
2022-08-18T17:12:52.895Z,14.33
2022-08-18T17:14:54.914Z,11.77
2022-08-18T17:16:59.212Z,12.10
2022-08-18T17:19:03.704Z,13.27
2022-08-18T17:21:07.680Z,11.57
2022-08-18T17:23:09.264Z,11.53
2022-08-18T17:25:13.325Z,12.37
2022-08-18T17:27:26.627Z,12.73
2022-08-18T17:29:34.770Z,12.70
2022-08-18T17:31:36.574Z,12.20
2022-08-18T17:33:42.790Z,13.00
2022-08-18T17:35:46.394Z,11.83
2022-08-18T17:37:53.659Z,12.67
2022-08-18T17:39:57.804Z,11.90
2022-08-18T17:41:59.428Z,11.63
2022-08-18T17:44:03.164Z,12.20
2022-08-18T17:46:13.443Z,11.87
2022-08-18T17:48:21.865Z,12.37
2022-08-18T17:50:30.715Z,10.70
2022-08-18T17:52:38.499Z,12.27
2022-08-18T17:54:43.904Z,12.40
2022-08-18T17:56:51.152Z,11.90
2022-08-18T17:58:55.952Z,11.20
2022-08-18T18:00:57.502Z,11.60
2022-08-18T18:02:59.652Z,10.87
2022-08-18T18:05:03.697Z,11.20
2022-08-18T18:07:19.887Z,10.73
2022-08-18T18:09:30.335Z,12.70
2022-08-18T18:11:35.236Z,11.60
2022-08-18T18:13:36.883Z,11.80
2022-08-18T18:15:42.978Z,12.57
2022-08-18T18:17:44.633Z,12.83
2022-08-18T18:19:49.601Z,12.73
2022-08-18T18:22:03.590Z,12.83
2022-08-18T18:24:15.144Z,11.77
2022-08-18T18:26:24.283Z,13.03
2022-08-18T18:28:28.341Z,13.47
2022-08-18T18:30:30.059Z,14.03
2022-08-18T18:32:34.678Z,14.40
2022-08-18T18:34:42.803Z,14.30
2022-08-18T18:36:47.292Z,13.87
2022-08-18T18:39:06.367Z,14.40
2022-08-18T18:41:22.282Z,14.33
2022-08-18T18:43:26.579Z,14.03
2022-08-18T18:45:30.362Z,15.30
2022-08-18T18:48:03.171Z,13.57
2022-08-18T18:50:09.615Z,13.63
2022-08-18T18:52:19.174Z,15.00
2022-08-18T18:54:39.171Z,15.53
2022-08-18T18:56:47.670Z,15.40
2022-08-18T18:59:04.998Z,14.33
2022-08-18T19:01:13.975Z,15.13
2022-08-18T19:03:20.050Z,16.13
2022-08-18T19:05:27.889Z,14.37
2022-08-18T19:07:36.219Z,15.90
2022-08-18T19:09:50.114Z,15.47
2022-08-18T19:12:10.794Z,16.50
2022-08-18T19:14:16.824Z,15.63
2022-08-18T19:16:23.738Z,15.13
2022-08-18T19:18:27.825Z,15.30
2022-08-18T19:20:36.504Z,15.37
2022-08-18T19:22:42.168Z,15.03
2022-08-18T19:24:52.518Z,15.57
2022-08-18T19:26:59.723Z,15.80
2022-08-18T19:29:13.300Z,15.80
2022-08-18T19:31:23.212Z,15.00
2022-08-18T19:33:32.505Z,15.57
2022-08-18T19:35:49.406Z,14.80
2022-08-18T19:38:06.707Z,14.67
2022-08-18T19:40:16.673Z,14.57
2022-08-18T19:42:27.955Z,16.40
2022-08-18T19:44:51.054Z,15.57
2022-08-18T19:47:09.837Z,15.20
2022-08-18T19:49:19.524Z,14.77
2022-08-18T19:51:28.421Z,16.67
2022-08-18T19:53:52.744Z,13.50
2022-08-18T19:56:11.351Z,15.23
2022-08-18T19:59:11.558Z,15.77
2022-08-18T20:01:20.889Z,14.83
2022-08-18T20:03:43.027Z,15.40
2022-08-18T20:05:53.415Z,14.40
2022-08-18T20:08:22.882Z,15.60
2022-08-18T20:10:43.890Z,14.90
2022-08-18T20:13:13.550Z,14.20
2022-08-18T20:15:18.724Z,14.30
2022-08-18T20:17:21.921Z,14.07
2022-08-18T20:19:48.675Z,13.63
2022-08-18T20:22:01.788Z,14.73
2022-08-18T20:24:05.567Z,13.23
2022-08-18T20:26:41.152Z,12.67
2022-08-18T20:28:42.766Z,14.87
2022-08-18T20:30:58.066Z,15.10
2022-08-18T20:33:14.870Z,15.47
2022-08-18T20:35:24.580Z,14.27
2022-08-18T20:37:27.218Z,16.10
2022-08-18T20:39:43.660Z,14.40
2022-08-18T20:41:45.575Z,16.17
2022-08-18T20:43:50.906Z,15.40
2022-08-18T20:46:03.408Z,14.70
2022-08-18T20:48:20.420Z,14.27
2022-08-18T20:50:42.987Z,14.27
2022-08-18T20:52:48.824Z,16.40
2022-08-18T20:55:00.275Z,17.00
2022-08-18T20:57:12.116Z,15.97
2022-08-18T20:59:17.679Z,17.10
2022-08-18T21:01:23.519Z,15.13
2022-08-18T21:03:35.614Z,15.83
2022-08-18T21:05:39.690Z,14.37
2022-08-18T21:08:01.018Z,15.00
2022-08-18T21:10:12.391Z,14.00
2022-08-18T21:12:21.346Z,14.03
2022-08-18T21:14:29.866Z,14.10
2022-08-18T21:16:39.387Z,14.53
2022-08-18T21:18:49.614Z,14.87
2022-08-18T21:20:53.663Z,14.07
2022-08-18T21:23:08.912Z,12.67
2022-08-18T21:25:14.102Z,14.80
2022-08-18T21:27:24.369Z,14.33
2022-08-18T21:29:27.360Z,14.23
2022-08-18T21:31:50.343Z,15.80
2022-08-18T21:33:53.940Z,13.40
2022-08-18T21:35:55.699Z,13.00
2022-08-18T21:37:59.313Z,14.93
2022-08-18T21:40:02.696Z,14.57
2022-08-18T21:42:04.816Z,16.00
2022-08-18T21:44:08.642Z,16.40
2022-08-18T21:46:13.004Z,15.83
2022-08-18T21:48:16.104Z,13.97
2022-08-18T21:50:20.023Z,14.80
2022-08-18T21:52:22.279Z,15.97
2022-08-18T21:54:29.124Z,15.73
2022-08-18T21:56:34.078Z,14.00
2022-08-18T21:58:40.044Z,16.60
2022-08-18T22:00:43.441Z,16.53
2022-08-18T22:02:45.720Z,17.80
2022-08-18T22:04:48.698Z,17.17
2022-08-18T22:06:54.189Z,16.57
2022-08-18T22:08:58.934Z,17.77
2022-08-18T22:11:18.299Z,16.10
2022-08-18T22:13:49.251Z,15.37
2022-08-18T22:15:53.913Z,15.20
2022-08-18T22:17:58.569Z,15.80
2022-08-18T22:20:34.261Z,16.23
2022-08-18T22:22:35.851Z,17.83
2022-08-18T22:24:38.756Z,14.77
2022-08-18T22:26:40.629Z,16.00
2022-08-18T22:28:49.930Z,16.07
2022-08-18T22:30:51.651Z,16.00
2022-08-18T22:32:53.465Z,16.00
2022-08-18T22:34:55.254Z,15.17
2022-08-18T22:37:00.824Z,14.00
2022-08-18T22:39:02.669Z,15.47
2022-08-18T22:41:04.740Z,14.80
2022-08-18T22:43:06.309Z,15.67
2022-08-18T22:45:11.321Z,16.80
2022-08-18T22:47:13.359Z,16.47
2022-08-18T22:49:15.125Z,13.83
2022-08-18T22:51:22.143Z,15.10
2022-08-18T22:53:25.174Z,15.23
2022-08-18T22:55:26.807Z,15.67
2022-08-18T22:57:30.464Z,15.50
2022-08-18T22:59:34.494Z,15.23
2022-08-18T23:01:36.966Z,14.03
2022-08-18T23:03:41.962Z,15.30
2022-08-18T23:05:44.176Z,14.43
2022-08-18T23:07:45.763Z,12.60
2022-08-18T23:09:48.794Z,15.97
2022-08-18T23:11:51.642Z,15.03
2022-08-18T23:13:53.289Z,14.10
2022-08-18T23:15:54.933Z,14.83
2022-08-18T23:21:07.051Z,16.30
2022-08-18T23:23:08.621Z,14.43
2022-08-18T23:25:11.609Z,16.63
2022-08-18T23:27:13.288Z,17.47
2022-08-18T23:29:14.918Z,16.60
2022-08-18T23:31:17.009Z,16.33
2022-08-18T23:33:19.021Z,17.63
2022-08-18T23:35:20.670Z,14.73
2022-08-18T23:37:22.286Z,15.50
2022-08-18T23:39:25.310Z,15.10
2022-08-18T23:41:31.356Z,16.30
2022-08-18T23:43:32.960Z,16.97
2022-08-18T23:45:35.415Z,18.03
2022-08-18T23:47:37.609Z,15.87
2022-08-18T23:49:39.263Z,14.80
2022-08-18T23:51:43.766Z,17.30
2022-08-18T23:53:45.357Z,14.70
2022-08-18T23:55:46.894Z,13.83
2022-08-18T23:57:49.862Z,15.17
2022-08-18T23:59:51.437Z,15.90
